createdAt,value
2019-04-14T00:00:53.285Z,22.20
2019-04-14T00:03:19.335Z,22.20
2019-04-14T00:05:45.141Z,22.19
2019-04-14T00:08:11.102Z,22.20
2019-04-14T00:10:37.796Z,22.20
2019-04-14T00:13:02.881Z,22.19
2019-04-14T00:15:35.844Z,22.19
2019-04-14T00:17:54.917Z,22.19
2019-04-14T00:20:20.939Z,22.19
2019-04-14T00:22:46.962Z,22.18
2019-04-14T00:25:13.082Z,22.19
2019-04-14T00:27:39.006Z,22.18
2019-04-14T00:30:05.469Z,22.18
2019-04-14T00:32:31.290Z,22.18
2019-04-14T00:34:57.220Z,22.18
2019-04-14T00:37:23.095Z,22.17
2019-04-14T00:39:49.086Z,22.17
2019-04-14T00:42:15.103Z,22.17
2019-04-14T00:44:41.168Z,22.17
2019-04-14T00:47:07.175Z,22.17
2019-04-14T00:49:33.294Z,22.17
2019-04-14T00:51:59.364Z,22.17
2019-04-14T00:54:25.999Z,22.17
2019-04-14T00:56:51.944Z,22.17
2019-04-14T00:59:17.928Z,22.16
2019-04-14T01:01:43.800Z,22.16
2019-04-14T01:04:09.782Z,22.15
2019-04-14T01:06:36.109Z,22.15
2019-04-14T01:09:02.130Z,22.15
2019-04-14T01:11:27.284Z,22.15
2019-04-14T01:13:53.271Z,22.15
2019-04-14T01:16:23.063Z,22.15
2019-04-14T01:18:45.293Z,22.15
2019-04-14T01:21:11.317Z,22.15
2019-04-14T01:23:37.330Z,22.15
2019-04-14T01:26:03.372Z,22.15
2019-04-14T01:28:29.383Z,22.14
2019-04-14T01:30:56.515Z,22.15
2019-04-14T01:33:21.396Z,22.14
2019-04-14T01:35:47.412Z,22.14
2019-04-14T01:38:14.667Z,22.14
2019-04-14T01:40:40.219Z,22.13
2019-04-14T01:43:05.991Z,22.13
2019-04-14T01:45:31.753Z,22.13
2019-04-14T01:47:57.599Z,22.12
2019-04-14T01:50:23.558Z,22.12
2019-04-14T01:52:50.146Z,22.12
2019-04-14T01:55:15.664Z,22.12
2019-04-14T01:57:41.675Z,22.12
2019-04-14T02:00:07.724Z,22.12
2019-04-14T02:02:33.702Z,22.13
2019-04-14T02:04:59.722Z,22.12
2019-04-14T02:07:25.711Z,22.12
2019-04-14T02:09:51.768Z,22.12
2019-04-14T02:12:17.776Z,22.11
2019-04-14T02:14:45.069Z,22.11
2019-04-14T02:17:11.067Z,22.11
2019-04-14T02:19:37.064Z,22.11
2019-04-14T02:22:02.728Z,22.11
2019-04-14T02:24:28.859Z,22.11
2019-04-14T02:26:54.766Z,22.11
2019-04-14T02:29:21.072Z,22.10
2019-04-14T02:32:17.313Z,22.11
2019-04-14T02:37:04.479Z,22.11
2019-04-14T02:44:23.028Z,22.10
2019-04-14T02:49:16.832Z,22.10
2019-04-14T02:54:07.467Z,22.10
2019-04-14T02:56:28.041Z,22.10
2019-04-14T02:59:01.733Z,22.09
2019-04-14T03:01:48.310Z,22.09
2019-04-14T03:06:16.168Z,22.09
2019-04-14T03:08:51.218Z,22.09
2019-04-14T03:13:35.313Z,22.09
2019-04-14T03:18:35.914Z,22.09
2019-04-14T03:23:23.829Z,22.09
2019-04-14T03:25:33.687Z,22.09
2019-04-14T03:28:07.236Z,22.08
2019-04-14T03:37:51.108Z,22.08
2019-04-14T03:40:23.652Z,22.07
2019-04-14T03:42:55.629Z,22.08
2019-04-14T03:45:20.691Z,22.07
2019-04-14T03:47:38.043Z,22.07
2019-04-14T03:52:47.827Z,22.08
2019-04-14T03:54:51.668Z,22.07
2019-04-14T03:56:57.687Z,22.07
2019-04-14T03:59:23.852Z,22.06
2019-04-14T04:01:49.937Z,22.07
2019-04-14T04:04:14.654Z,22.06
2019-04-14T04:06:42.054Z,22.07
2019-04-14T04:09:06.755Z,22.06
2019-04-14T04:11:32.841Z,22.07
2019-04-14T04:13:58.862Z,22.07
2019-04-14T04:16:24.854Z,22.08
2019-04-14T04:18:57.902Z,22.08
2019-04-14T04:21:16.854Z,22.09
2019-04-14T04:23:42.855Z,22.08
2019-04-14T04:26:08.876Z,22.08
2019-04-14T04:28:34.900Z,22.08
2019-04-14T04:31:00.921Z,22.09
2019-04-14T04:33:26.958Z,22.09
2019-04-14T04:35:54.120Z,22.09
2019-04-14T04:38:19.988Z,22.10
2019-04-14T04:40:46.081Z,22.10
2019-04-14T04:43:12.465Z,22.10
2019-04-14T04:45:37.164Z,22.09
2019-04-14T04:48:04.451Z,22.10
2019-04-14T04:50:30.276Z,22.10
2019-04-14T04:52:56.229Z,22.11
2019-04-14T04:55:22.005Z,22.10
2019-04-14T04:57:48.168Z,22.10
2019-04-14T05:00:13.474Z,22.10
2019-04-14T05:02:39.577Z,22.11
2019-04-14T05:05:05.554Z,22.11
2019-04-14T05:07:31.680Z,22.11
2019-04-14T05:09:57.771Z,22.11
2019-04-14T05:12:24.188Z,22.11
2019-04-14T05:14:50.137Z,22.11
2019-04-14T05:17:15.471Z,22.11
2019-04-14T05:19:42.146Z,22.12
2019-04-14T05:22:07.505Z,22.11
2019-04-14T05:24:33.504Z,22.12
2019-04-14T05:26:59.521Z,22.12
2019-04-14T05:29:25.551Z,22.12
2019-04-14T05:31:51.557Z,22.13
2019-04-14T05:34:17.622Z,22.12
2019-04-14T05:36:43.609Z,22.12
2019-04-14T05:39:09.628Z,22.12
2019-04-14T05:41:35.663Z,22.12
2019-04-14T05:44:03.226Z,22.12
2019-04-14T05:46:27.673Z,22.13
2019-04-14T05:48:53.712Z,22.13
2019-04-14T05:51:21.683Z,22.13
2019-04-14T05:53:45.924Z,22.12
2019-04-14T05:56:12.156Z,22.13
2019-04-14T05:58:38.283Z,22.14
2019-04-14T06:01:04.740Z,22.13
2019-04-14T06:03:30.024Z,22.12
2019-04-14T06:05:55.985Z,22.12
2019-04-14T06:08:22.001Z,22.14
2019-04-14T06:10:48.017Z,22.13
2019-04-14T06:13:14.025Z,22.13
2019-04-14T06:15:40.056Z,22.13
2019-04-14T06:18:06.106Z,22.14
2019-04-14T06:20:32.105Z,22.14
2019-04-14T06:22:58.123Z,22.14
2019-04-14T06:25:24.143Z,22.14
2019-04-14T06:27:50.213Z,22.15
2019-04-14T06:30:16.518Z,22.14
2019-04-14T06:32:42.515Z,22.15
2019-04-14T06:35:08.534Z,22.16
2019-04-14T06:37:34.622Z,22.15
2019-04-14T06:40:00.634Z,22.14
2019-04-14T06:42:26.623Z,22.14
2019-04-14T06:44:52.640Z,22.14
2019-04-14T06:47:18.675Z,22.14
2019-04-14T06:49:49.150Z,22.14
2019-04-14T06:52:10.687Z,22.14
2019-04-14T06:54:36.703Z,22.13
2019-04-14T06:57:02.937Z,22.13
2019-04-14T06:59:28.971Z,22.14
2019-04-14T07:01:54.970Z,22.15
2019-04-14T07:04:21.013Z,22.16
2019-04-14T07:06:47.399Z,22.15
2019-04-14T07:09:13.672Z,22.17
2019-04-14T07:11:39.692Z,22.16
2019-04-14T07:14:05.719Z,22.15
2019-04-14T07:16:31.842Z,22.14
2019-04-14T07:18:57.863Z,22.14
2019-04-14T07:21:23.883Z,22.13
2019-04-14T07:23:49.890Z,22.14
2019-04-14T07:26:15.918Z,22.13
2019-04-14T07:28:41.965Z,22.13
2019-04-14T07:31:07.964Z,22.13
2019-04-14T07:33:33.971Z,22.13
2019-04-14T07:36:00.027Z,22.13
2019-04-14T07:38:26.018Z,22.13
2019-04-14T07:40:52.026Z,22.13
2019-04-14T07:43:18.068Z,22.14
2019-04-14T07:45:44.075Z,22.14
2019-04-14T07:48:10.092Z,22.13
2019-04-14T07:50:36.188Z,22.13
2019-04-14T07:53:02.200Z,22.13
2019-04-14T07:55:28.206Z,22.14
2019-04-14T07:57:54.195Z,22.14
2019-04-14T08:00:20.225Z,22.15
2019-04-14T08:02:46.245Z,22.15
2019-04-14T08:05:12.255Z,22.15
2019-04-14T08:07:38.273Z,22.16
2019-04-14T08:10:04.288Z,22.16
2019-04-14T08:12:30.308Z,22.15
2019-04-14T08:14:56.303Z,22.16
2019-04-14T08:17:22.303Z,22.15
2019-04-14T08:19:48.324Z,22.15
2019-04-14T08:22:14.343Z,22.15
2019-04-14T08:24:40.355Z,22.16
2019-04-14T08:27:06.384Z,22.14
2019-04-14T08:29:32.407Z,22.16
2019-04-14T08:31:58.433Z,22.16
2019-04-14T08:34:24.453Z,22.16
2019-04-14T08:36:50.450Z,22.16
2019-04-14T08:39:16.476Z,22.17
2019-04-14T08:41:42.525Z,22.17
2019-04-14T08:44:08.637Z,22.17
2019-04-14T08:46:34.631Z,22.18
2019-04-14T08:49:00.645Z,22.18
2019-04-14T08:51:26.707Z,22.17
2019-04-14T08:53:52.704Z,22.17
2019-04-14T08:56:18.729Z,22.18
2019-04-14T08:58:44.743Z,22.18
2019-04-14T09:01:10.764Z,22.18
2019-04-14T09:03:36.780Z,22.18
2019-04-14T09:06:03.170Z,22.18
2019-04-14T09:08:29.188Z,22.19
2019-04-14T09:10:55.209Z,22.19
2019-04-14T09:13:21.288Z,22.19
2019-04-14T09:15:47.297Z,22.19
2019-04-14T09:18:13.364Z,22.18
2019-04-14T09:20:51.363Z,22.18
2019-04-14T09:23:05.543Z,22.19
2019-04-14T09:25:31.561Z,22.20
2019-04-14T09:27:57.575Z,22.20
2019-04-14T09:30:23.614Z,22.19
2019-04-14T09:32:49.627Z,22.20
2019-04-14T09:35:15.660Z,22.19
2019-04-14T09:37:41.717Z,22.19
2019-04-14T09:40:07.753Z,22.19
2019-04-14T09:42:33.837Z,22.20
2019-04-14T09:44:59.851Z,22.20
2019-04-14T09:47:25.873Z,22.21
2019-04-14T09:49:51.899Z,22.20
2019-04-14T09:52:17.901Z,22.20
2019-04-14T09:54:43.911Z,22.20
2019-04-14T09:57:09.929Z,22.20
2019-04-14T09:59:36.015Z,22.20
2019-04-14T10:02:02.036Z,22.21
2019-04-14T10:04:28.050Z,22.20
2019-04-14T10:06:54.059Z,22.20
2019-04-14T10:09:20.082Z,22.21
2019-04-14T10:11:48.726Z,22.21
2019-04-14T10:14:12.259Z,22.21
2019-04-14T10:16:38.276Z,22.21
2019-04-14T10:19:04.270Z,22.22
2019-04-14T10:21:30.402Z,22.22
2019-04-14T10:23:56.379Z,22.22
2019-04-14T10:26:22.415Z,22.22
2019-04-14T10:28:50.681Z,22.23
2019-04-14T10:31:14.487Z,22.23
2019-04-14T10:33:40.511Z,22.24
2019-04-14T10:36:06.538Z,22.23
2019-04-14T10:38:32.576Z,22.24
2019-04-14T10:40:58.622Z,22.26
2019-04-14T10:43:24.642Z,22.26
2019-04-14T10:45:50.653Z,22.26
2019-04-14T10:48:16.699Z,22.26
2019-04-14T10:50:42.727Z,22.26
2019-04-14T10:53:08.735Z,22.27
2019-04-14T10:55:34.789Z,22.27
2019-04-14T10:58:00.784Z,22.27
2019-04-14T11:00:26.818Z,22.28
2019-04-14T11:02:52.850Z,22.28
2019-04-14T11:05:18.850Z,22.28
2019-04-14T11:07:44.847Z,22.28
2019-04-14T11:10:10.929Z,22.28
2019-04-14T11:12:36.929Z,22.28
2019-04-14T11:15:02.950Z,22.29
2019-04-14T11:17:28.945Z,22.30
2019-04-14T11:19:55.016Z,22.30
2019-04-14T11:22:21.025Z,22.30
2019-04-14T11:24:47.449Z,22.30
2019-04-14T11:27:13.487Z,22.30
2019-04-14T11:29:39.497Z,22.31
2019-04-14T11:32:05.536Z,22.31
2019-04-14T11:34:31.533Z,22.31
2019-04-14T11:36:57.549Z,22.33
2019-04-14T11:39:23.633Z,22.33
2019-04-14T11:41:49.663Z,22.32
2019-04-14T11:44:21.842Z,22.33
2019-04-14T11:46:49.212Z,22.33
2019-04-14T11:49:15.251Z,22.32
2019-04-14T11:51:41.270Z,22.34
2019-04-14T11:54:07.276Z,22.34
2019-04-14T11:56:33.302Z,22.34
2019-04-14T11:58:59.323Z,22.35
2019-04-14T12:01:25.385Z,22.34
2019-04-14T12:03:51.440Z,22.34
2019-04-14T12:06:17.465Z,22.32
2019-04-14T12:08:45.561Z,22.32
2019-04-14T12:11:09.475Z,22.33
2019-04-14T12:13:35.489Z,22.34
2019-04-14T12:16:01.585Z,22.36
2019-04-14T12:18:27.654Z,22.37
2019-04-14T12:20:53.651Z,22.37
2019-04-14T12:23:19.653Z,22.37
2019-04-14T12:25:45.715Z,22.38
2019-04-14T12:28:11.726Z,22.39
2019-04-14T12:30:37.804Z,22.39
2019-04-14T12:33:03.768Z,22.41
2019-04-14T12:35:29.781Z,22.40
2019-04-14T12:37:55.797Z,22.42
2019-04-14T12:40:21.820Z,22.43
2019-04-14T12:42:47.875Z,22.43
2019-04-14T12:45:13.881Z,22.43
2019-04-14T12:47:40.520Z,22.43
2019-04-14T12:50:05.911Z,22.44
2019-04-14T12:52:32.070Z,22.45
2019-04-14T12:54:58.095Z,22.45
2019-04-14T12:57:24.171Z,22.47
2019-04-14T12:59:50.192Z,22.47
2019-04-14T13:02:16.193Z,22.48
2019-04-14T13:04:42.226Z,22.48
2019-04-14T13:07:08.248Z,22.47
2019-04-14T13:09:34.288Z,22.45
2019-04-14T13:12:03.598Z,22.49
2019-04-14T13:14:29.672Z,22.50
2019-04-14T13:16:55.675Z,22.51
2019-04-14T13:19:21.682Z,22.50
2019-04-14T13:21:47.719Z,22.51
2019-04-14T13:24:13.731Z,22.52
2019-04-14T13:26:39.784Z,22.53
2019-04-14T13:29:05.905Z,22.54
2019-04-14T13:31:31.940Z,22.54
2019-04-14T13:33:57.948Z,22.55
2019-04-14T13:36:23.963Z,22.55
2019-04-14T13:38:50.422Z,22.54
2019-04-14T13:41:16.429Z,22.54
2019-04-14T13:43:49.645Z,22.54
2019-04-14T13:46:15.659Z,22.54
2019-04-14T13:48:42.079Z,22.56
2019-04-14T13:51:07.726Z,22.56
2019-04-14T13:53:33.967Z,22.57
2019-04-14T13:55:59.964Z,22.57
2019-04-14T13:58:25.974Z,22.57
2019-04-14T14:00:52.013Z,22.58
2019-04-14T14:03:18.007Z,22.58
2019-04-14T14:05:44.013Z,22.58
2019-04-14T14:08:10.021Z,22.59
2019-04-14T14:10:36.046Z,22.59
2019-04-14T14:13:02.059Z,22.59
2019-04-14T14:15:28.102Z,22.58
2019-04-14T14:17:54.124Z,22.58
2019-04-14T14:20:20.183Z,22.61
2019-04-14T14:22:58.324Z,22.61
2019-04-14T14:25:12.178Z,22.62
2019-04-14T14:27:38.209Z,22.62
2019-04-14T14:30:04.226Z,22.64
2019-04-14T14:32:30.244Z,22.63
2019-04-14T14:34:56.252Z,22.64
2019-04-14T14:37:22.379Z,22.63
2019-04-14T14:39:48.618Z,22.63
2019-04-14T14:42:14.892Z,22.63
2019-04-14T14:44:40.843Z,22.63
2019-04-14T14:47:07.159Z,22.63
2019-04-14T14:49:33.142Z,22.64
2019-04-14T14:51:59.167Z,22.65
2019-04-14T14:54:25.211Z,22.66
2019-04-14T14:56:51.226Z,22.67
2019-04-14T14:59:17.271Z,22.65
2019-04-14T15:01:43.263Z,22.67
2019-04-14T15:04:09.331Z,22.66
2019-04-14T15:06:35.352Z,22.65
2019-04-14T15:09:01.355Z,22.65
2019-04-14T15:11:27.459Z,22.68
2019-04-14T15:13:53.568Z,22.68
2019-04-14T15:16:19.593Z,22.68
2019-04-14T15:18:45.603Z,22.67
2019-04-14T15:21:11.624Z,22.70
2019-04-14T15:23:37.634Z,22.72
2019-04-14T15:26:03.675Z,22.72
2019-04-14T15:28:29.743Z,22.72
2019-04-14T15:30:55.747Z,22.71
2019-04-14T15:33:21.768Z,22.71
2019-04-14T15:35:47.800Z,22.70
2019-04-14T15:38:13.834Z,22.71
2019-04-14T15:40:39.845Z,22.71
2019-04-14T15:43:05.863Z,22.70
2019-04-14T15:45:31.875Z,22.70
2019-04-14T15:47:57.922Z,22.69
2019-04-14T15:50:23.941Z,22.68
2019-04-14T15:52:49.954Z,22.69
2019-04-14T15:55:15.979Z,22.68
2019-04-14T15:57:42.023Z,22.69
2019-04-14T16:00:08.054Z,22.68
2019-04-14T16:02:34.094Z,22.66
2019-04-14T16:05:00.089Z,22.65
2019-04-14T16:07:26.114Z,22.64
2019-04-14T16:09:52.155Z,22.63
2019-04-14T16:12:18.226Z,22.62
2019-04-14T16:14:44.239Z,22.62
2019-04-14T16:17:10.270Z,22.62
2019-04-14T16:19:36.264Z,22.61
2019-04-14T16:22:02.296Z,22.59
2019-04-14T16:24:28.288Z,22.60
2019-04-14T16:26:54.296Z,22.60
2019-04-14T16:29:20.331Z,22.60
2019-04-14T16:31:46.342Z,22.59
2019-04-14T16:34:12.345Z,22.59
2019-04-14T16:36:38.363Z,22.59
2019-04-14T16:39:04.426Z,22.58
2019-04-14T16:41:30.442Z,22.58
2019-04-14T16:43:56.431Z,22.58
2019-04-14T16:46:22.458Z,22.57
2019-04-14T16:48:48.480Z,22.57
2019-04-14T16:51:14.491Z,22.57
2019-04-14T16:53:40.509Z,22.57
2019-04-14T16:56:06.537Z,22.56
2019-04-14T16:58:33.753Z,22.50
2019-04-14T17:00:58.561Z,22.57
2019-04-14T17:03:24.559Z,22.56
2019-04-14T17:05:50.550Z,22.56
2019-04-14T17:08:16.599Z,22.57
2019-04-14T17:10:42.595Z,22.56
2019-04-14T17:13:08.587Z,22.56
2019-04-14T17:15:34.594Z,22.56
2019-04-14T17:18:00.617Z,22.57
2019-04-14T17:20:26.631Z,22.57
2019-04-14T17:22:52.641Z,22.57
2019-04-14T17:25:18.645Z,22.56
2019-04-14T17:27:44.671Z,22.56
2019-04-14T17:30:10.682Z,22.56
2019-04-14T17:32:36.685Z,22.56
2019-04-14T17:35:02.694Z,22.56
2019-04-14T17:37:28.825Z,22.56
2019-04-14T17:39:54.853Z,22.55
2019-04-14T17:42:20.846Z,22.56
2019-04-14T17:44:46.871Z,22.55
2019-04-14T17:47:12.890Z,22.55
2019-04-14T17:49:38.920Z,22.56
2019-04-14T17:52:05.597Z,22.56
2019-04-14T17:54:31.714Z,22.55
2019-04-14T17:56:59.133Z,22.56
2019-04-14T17:59:26.285Z,22.56
2019-04-14T18:01:52.321Z,22.55
2019-04-14T18:04:18.335Z,22.55
2019-04-14T18:06:52.772Z,22.54
2019-04-14T18:09:19.837Z,22.55
2019-04-14T18:11:50.732Z,22.54
2019-04-14T18:14:16.760Z,22.54
2019-04-14T18:16:42.816Z,22.53
2019-04-14T18:19:08.819Z,22.54
2019-04-14T18:21:34.879Z,22.54
2019-04-14T18:24:00.899Z,22.53
2019-04-14T18:26:26.915Z,22.53
2019-04-14T18:28:53.055Z,22.52
2019-04-14T18:31:20.070Z,22.51
2019-04-14T18:33:46.085Z,22.52
2019-04-14T18:36:12.100Z,22.52
2019-04-14T18:38:38.138Z,22.51
2019-04-14T18:41:04.138Z,22.50
2019-04-14T18:43:30.278Z,22.50
2019-04-14T18:45:56.295Z,22.48
2019-04-14T18:48:22.323Z,22.48
2019-04-14T18:50:48.405Z,22.48
2019-04-14T18:53:14.410Z,22.47
2019-04-14T18:55:40.414Z,22.47
2019-04-14T18:58:06.443Z,22.47
2019-04-14T19:00:32.460Z,22.46
2019-04-14T19:02:58.493Z,22.47
2019-04-14T19:05:24.508Z,22.46
2019-04-14T19:07:50.530Z,22.47
2019-04-14T19:10:16.526Z,22.47
2019-04-14T19:12:42.558Z,22.47
2019-04-14T19:15:08.578Z,22.47
2019-04-14T19:17:34.600Z,22.46
2019-04-14T19:20:01.948Z,22.47
2019-04-14T19:22:26.628Z,22.46
2019-04-14T19:24:52.660Z,22.47
2019-04-14T19:27:18.675Z,22.47
2019-04-14T19:29:44.690Z,22.48
2019-04-14T19:32:10.707Z,22.48
2019-04-14T19:34:36.733Z,22.47
2019-04-14T19:37:02.785Z,22.48
2019-04-14T19:39:28.915Z,22.46
2019-04-14T19:41:54.905Z,22.47
2019-04-14T19:44:20.926Z,22.46
2019-04-14T19:46:46.940Z,22.46
2019-04-14T19:49:13.015Z,22.47
2019-04-14T19:51:38.971Z,22.47
2019-04-14T19:54:05.021Z,22.47
2019-04-14T19:56:31.050Z,22.46
2019-04-14T19:58:57.212Z,22.46
2019-04-14T20:01:23.321Z,22.47
2019-04-14T20:03:49.331Z,22.46
2019-04-14T20:06:15.382Z,22.46
2019-04-14T20:08:41.458Z,22.47
2019-04-14T20:11:07.425Z,22.47
2019-04-14T20:13:33.441Z,22.46
2019-04-14T20:15:59.434Z,22.46
2019-04-14T20:18:25.494Z,22.47
2019-04-14T20:20:51.486Z,22.46
2019-04-14T20:23:17.628Z,22.47
2019-04-14T20:25:43.538Z,22.46
2019-04-14T20:28:09.558Z,22.46
2019-04-14T20:30:35.589Z,22.47
2019-04-14T20:33:01.606Z,22.47
2019-04-14T20:35:27.602Z,22.47
2019-04-14T20:37:53.601Z,22.46
2019-04-14T20:40:19.627Z,22.47
2019-04-14T20:42:45.642Z,22.46
2019-04-14T20:45:11.687Z,22.47
2019-04-14T20:47:37.681Z,22.47
2019-04-14T20:50:03.676Z,22.47
2019-04-14T20:52:30.987Z,22.48
2019-04-14T20:54:57.009Z,22.48
2019-04-14T20:57:23.023Z,22.48
2019-04-14T20:59:50.603Z,22.48
2019-04-14T21:02:16.651Z,22.48
2019-04-14T21:04:42.659Z,22.47
2019-04-14T21:07:08.652Z,22.48
2019-04-14T21:09:34.779Z,22.47
2019-04-14T21:12:00.798Z,22.48
2019-04-14T21:14:26.935Z,22.48
2019-04-14T21:16:52.934Z,22.48
2019-04-14T21:19:19.011Z,22.48
2019-04-14T21:21:44.949Z,22.48
2019-04-14T21:24:10.970Z,22.48
2019-04-14T21:26:36.982Z,22.49
2019-04-14T21:29:03.003Z,22.49
2019-04-14T21:31:29.002Z,22.49
2019-04-14T21:33:55.046Z,22.48
2019-04-14T21:36:21.033Z,22.48
2019-04-14T21:38:47.042Z,22.47
2019-04-14T21:41:13.101Z,22.47
2019-04-14T21:43:39.107Z,22.47
2019-04-14T21:46:05.107Z,22.46
2019-04-14T21:48:31.106Z,22.46
2019-04-14T21:50:57.262Z,22.46
2019-04-14T21:53:23.276Z,22.46
2019-04-14T21:55:49.286Z,22.45
2019-04-14T21:58:15.298Z,22.45
2019-04-14T22:00:41.287Z,22.45
2019-04-14T22:03:07.311Z,22.44
2019-04-14T22:05:33.316Z,22.44
2019-04-14T22:07:59.320Z,22.44
2019-04-14T22:10:25.326Z,22.44
2019-04-14T22:12:51.351Z,22.42
2019-04-14T22:15:17.384Z,22.42
2019-04-14T22:17:43.382Z,22.42
2019-04-14T22:20:09.389Z,22.42
2019-04-14T22:22:35.405Z,22.41
2019-04-14T22:25:01.428Z,22.41
2019-04-14T22:27:27.447Z,22.41
2019-04-14T22:29:53.459Z,22.41
2019-04-14T22:32:19.500Z,22.40
2019-04-14T22:34:45.513Z,22.40
2019-04-14T22:37:11.511Z,22.40
2019-04-14T22:39:39.266Z,22.39
2019-04-14T22:42:03.565Z,22.39
2019-04-14T22:44:29.567Z,22.39
2019-04-14T22:46:55.590Z,22.38
2019-04-14T22:49:21.595Z,22.39
2019-04-14T22:51:47.632Z,22.38
2019-04-14T22:54:13.645Z,22.38
2019-04-14T22:56:39.900Z,22.38
2019-04-14T22:59:05.688Z,22.38
2019-04-14T23:01:31.688Z,22.37
2019-04-14T23:03:57.733Z,22.36
2019-04-14T23:06:23.752Z,22.37
2019-04-14T23:08:49.804Z,22.36
2019-04-14T23:11:15.829Z,22.36
2019-04-14T23:13:41.842Z,22.36
2019-04-14T23:16:07.854Z,22.35
2019-04-14T23:18:33.981Z,22.35
2019-04-14T23:20:59.978Z,22.35
2019-04-14T23:23:25.980Z,22.35
2019-04-14T23:25:51.978Z,22.34
2019-04-14T23:28:17.985Z,22.34
2019-04-14T23:30:43.980Z,22.34
2019-04-14T23:33:10.027Z,22.34
2019-04-14T23:35:36.038Z,22.34
2019-04-14T23:38:02.078Z,22.34
2019-04-14T23:40:28.073Z,22.33
2019-04-14T23:42:54.067Z,22.33
2019-04-14T23:45:20.120Z,22.32
2019-04-14T23:47:46.112Z,22.33
2019-04-14T23:50:12.117Z,22.31
2019-04-14T23:52:38.137Z,22.32
2019-04-14T23:55:04.153Z,22.31
2019-04-14T23:57:30.160Z,22.29
2019-04-14T23:59:56.170Z,22.31
